createdAt,value
2023-03-22T00:02:27.338Z,8.66
2023-03-22T00:04:56.912Z,8.66
2023-03-22T00:07:25.092Z,8.65
2023-03-22T00:09:53.072Z,8.69
2023-03-22T00:12:20.911Z,8.71
2023-03-22T00:14:49.442Z,8.74
2023-03-22T00:17:17.414Z,8.76
2023-03-22T00:19:45.269Z,8.78
2023-03-22T00:22:14.764Z,8.77
2023-03-22T00:24:42.656Z,8.76
2023-03-22T00:27:10.421Z,8.73
2023-03-22T00:29:38.347Z,8.78
2023-03-22T00:32:06.644Z,8.77
2023-03-22T00:34:34.881Z,8.86
2023-03-22T00:37:04.183Z,8.85
2023-03-22T00:39:33.439Z,8.87
2023-03-22T00:42:01.289Z,8.89
2023-03-22T00:44:29.083Z,8.91
2023-03-22T00:46:56.980Z,8.92
2023-03-22T00:49:25.505Z,8.89
2023-03-22T00:51:53.592Z,8.85
2023-03-22T00:54:21.789Z,8.88
2023-03-22T00:56:51.059Z,8.83
2023-03-22T00:59:19.098Z,8.86
2023-03-22T01:01:46.949Z,8.89
2023-03-22T01:04:18.124Z,8.91
2023-03-22T01:06:47.099Z,8.94
2023-03-22T01:09:15.174Z,8.89
2023-03-22T01:11:43.832Z,8.87
2023-03-22T01:14:16.745Z,8.90
2023-03-22T01:16:44.573Z,8.92
2023-03-22T01:19:12.697Z,8.92
2023-03-22T01:21:40.630Z,8.93
2023-03-22T01:24:09.006Z,8.90
2023-03-22T01:26:37.832Z,8.90
2023-03-22T01:29:06.365Z,8.91
2023-03-22T01:31:35.595Z,8.94
2023-03-22T01:34:03.514Z,8.90
2023-03-22T01:36:32.241Z,8.91
2023-03-22T01:39:00.501Z,8.90
2023-03-22T01:41:28.582Z,8.89
2023-03-22T01:44:09.064Z,8.91
2023-03-22T01:46:38.373Z,8.92
2023-03-22T01:49:09.903Z,8.91
2023-03-22T01:51:37.973Z,8.94
2023-03-22T01:54:19.214Z,8.96
2023-03-22T01:56:48.376Z,8.96
2023-03-22T01:59:26.095Z,9.04
2023-03-22T02:02:19.253Z,9.08
2023-03-22T02:04:57.822Z,9.05
2023-03-22T02:07:28.208Z,9.09
2023-03-22T02:09:57.730Z,9.11
2023-03-22T02:12:39.847Z,9.11
2023-03-22T02:15:24.981Z,9.17
2023-03-22T02:18:29.841Z,9.15
2023-03-22T02:21:13.930Z,9.19
2023-03-22T02:24:17.723Z,9.27
2023-03-22T02:27:21.797Z,9.25
2023-03-22T02:29:57.667Z,9.27
2023-03-22T02:32:55.429Z,9.29
2023-03-22T02:35:44.400Z,9.27
2023-03-22T02:38:36.702Z,9.22
2023-03-22T02:41:14.255Z,9.16
2023-03-22T02:43:54.509Z,9.21
2023-03-22T02:46:26.074Z,9.16
2023-03-22T02:49:00.836Z,9.13
2023-03-22T02:51:35.578Z,9.10
2023-03-22T02:54:08.519Z,9.06
2023-03-22T02:56:41.603Z,9.05
2023-03-22T02:59:12.565Z,8.95
2023-03-22T03:01:44.423Z,8.96
2023-03-22T03:04:17.558Z,8.92
2023-03-22T03:06:49.219Z,8.88
2023-03-22T03:09:20.097Z,8.87
2023-03-22T03:11:51.724Z,8.82
2023-03-22T03:14:22.177Z,8.85
2023-03-22T03:17:00.871Z,8.83
2023-03-22T03:19:36.368Z,8.84
2023-03-22T03:22:16.542Z,8.84
2023-03-22T03:24:50.222Z,8.82
2023-03-22T03:27:27.362Z,8.79
2023-03-22T03:30:01.525Z,8.72
2023-03-22T03:32:38.331Z,8.64
2023-03-22T03:35:22.368Z,8.65
2023-03-22T03:37:54.487Z,8.56
2023-03-22T03:40:27.276Z,8.56
2023-03-22T03:43:00.002Z,8.59
2023-03-22T03:45:27.940Z,8.59
2023-03-22T03:48:00.536Z,8.60
2023-03-22T03:50:29.075Z,8.61
2023-03-22T03:52:57.964Z,8.63
2023-03-22T03:55:28.111Z,8.61
2023-03-22T03:57:57.368Z,8.56
2023-03-22T04:00:25.202Z,8.58
2023-03-22T04:03:27.274Z,8.58
2023-03-22T04:06:13.191Z,8.60
2023-03-22T04:08:46.527Z,8.57
2023-03-22T04:11:17.005Z,8.54
2023-03-22T04:13:49.834Z,8.53
2023-03-22T04:16:21.666Z,8.56
2023-03-22T04:18:49.849Z,8.54
2023-03-22T04:21:17.754Z,8.53
2023-03-22T04:23:52.352Z,8.54
2023-03-22T04:26:20.687Z,8.50
2023-03-22T04:29:09.949Z,8.50
2023-03-22T04:31:42.978Z,8.44
2023-03-22T04:34:27.615Z,8.44
2023-03-22T04:37:02.324Z,8.40
2023-03-22T04:40:06.654Z,8.34
2023-03-22T04:42:46.102Z,8.34
2023-03-22T04:45:21.501Z,8.34
2023-03-22T04:47:57.099Z,8.32
2023-03-22T04:50:25.063Z,8.34
2023-03-22T04:52:58.431Z,8.35
2023-03-22T04:55:27.667Z,8.33
2023-03-22T04:57:55.914Z,8.29
2023-03-22T05:00:30.077Z,8.23
2023-03-22T05:02:58.890Z,8.16
2023-03-22T05:05:52.588Z,8.16
2023-03-22T05:08:21.827Z,8.18
2023-03-22T05:10:52.190Z,8.19
2023-03-22T05:13:20.237Z,8.19
2023-03-22T05:15:50.238Z,8.20
2023-03-22T05:18:24.613Z,8.22
2023-03-22T05:20:54.932Z,8.25
2023-03-22T05:23:25.515Z,8.30
2023-03-22T05:25:58.266Z,8.38
2023-03-22T05:28:28.451Z,8.42
2023-03-22T05:31:18.061Z,8.41
2023-03-22T05:33:55.550Z,8.43
2023-03-22T05:36:26.074Z,8.38
2023-03-22T05:39:10.255Z,8.34
2023-03-22T05:41:38.273Z,8.33
2023-03-22T05:44:06.731Z,8.31
2023-03-22T05:46:38.825Z,8.34
2023-03-22T05:49:28.816Z,8.33
2023-03-22T05:51:57.248Z,8.36
2023-03-22T05:54:31.238Z,8.42
2023-03-22T05:56:59.546Z,8.46
2023-03-22T05:59:28.134Z,8.56
2023-03-22T06:01:57.475Z,8.61
2023-03-22T06:04:25.655Z,8.69
2023-03-22T06:06:59.344Z,8.72
2023-03-22T06:09:42.633Z,8.79
2023-03-22T06:12:17.033Z,8.85
2023-03-22T06:14:50.842Z,8.90
2023-03-22T06:17:38.513Z,8.97
2023-03-22T06:20:11.255Z,9.08
2023-03-22T06:22:42.005Z,9.26
2023-03-22T06:25:12.024Z,9.29
2023-03-22T06:27:46.526Z,9.32
2023-03-22T06:30:14.982Z,9.51
2023-03-22T06:33:06.125Z,9.54
2023-03-22T06:35:37.985Z,9.50
2023-03-22T06:38:07.933Z,9.46
2023-03-22T06:40:38.130Z,9.49
2023-03-22T06:43:07.445Z,9.54
2023-03-22T06:45:39.001Z,9.55
2023-03-22T06:48:09.723Z,9.61
2023-03-22T06:50:47.277Z,9.66
2023-03-22T06:53:19.903Z,9.64
2023-03-22T06:55:48.046Z,9.70
2023-03-22T06:58:19.688Z,9.76
2023-03-22T07:00:47.586Z,9.92
2023-03-22T07:03:17.845Z,9.93
2023-03-22T07:06:02.323Z,10.03
2023-03-22T07:08:32.339Z,10.19
2023-03-22T07:11:00.355Z,10.25
2023-03-22T07:13:28.753Z,10.32
2023-03-22T07:16:02.485Z,10.34
2023-03-22T07:18:44.991Z,10.41
2023-03-22T07:21:13.038Z,10.50
2023-03-22T07:23:43.163Z,10.74
2023-03-22T07:26:15.381Z,10.90
2023-03-22T07:28:46.546Z,11.17
2023-03-22T07:31:16.426Z,11.22
2023-03-22T07:34:16.288Z,11.28
2023-03-22T07:36:59.262Z,11.85
2023-03-22T07:39:28.956Z,12.31
2023-03-22T07:41:57.838Z,12.08
2023-03-22T07:44:25.699Z,11.75
2023-03-22T07:47:39.972Z,11.75
2023-03-22T07:50:30.168Z,12.00
2023-03-22T07:53:00.941Z,12.36
2023-03-22T07:55:28.955Z,12.45
2023-03-22T07:57:57.511Z,12.73
2023-03-22T08:00:26.164Z,13.45
2023-03-22T08:03:06.900Z,13.59
2023-03-22T08:05:54.774Z,13.09
2023-03-22T08:08:22.903Z,12.97
2023-03-22T08:10:51.727Z,12.79
2023-03-22T08:13:19.948Z,12.52
2023-03-22T08:15:47.974Z,12.60
2023-03-22T08:18:15.961Z,12.49
2023-03-22T08:20:46.269Z,12.75
2023-03-22T08:23:31.688Z,13.35
2023-03-22T08:26:36.265Z,14.56
2023-03-22T08:29:13.036Z,15.33
2023-03-22T08:31:41.086Z,15.03
2023-03-22T08:34:09.019Z,15.04
2023-03-22T08:36:39.002Z,15.43
2023-03-22T08:39:09.540Z,15.91
2023-03-22T08:41:48.034Z,14.89
2023-03-22T08:44:16.120Z,14.73
2023-03-22T08:46:43.993Z,15.04
2023-03-22T08:49:11.928Z,14.09
2023-03-22T08:51:43.916Z,14.57
2023-03-22T08:54:23.942Z,15.05
2023-03-22T08:56:54.793Z,14.27
2023-03-22T08:59:34.336Z,14.40
2023-03-22T09:02:22.398Z,14.43
2023-03-22T09:04:50.486Z,14.13
2023-03-22T09:07:18.883Z,14.74
2023-03-22T09:09:53.921Z,15.19
2023-03-22T09:12:22.376Z,14.79
2023-03-22T09:14:50.484Z,15.38
2023-03-22T09:17:21.318Z,14.99
2023-03-22T09:19:57.688Z,14.98
2023-03-22T09:22:32.028Z,14.78
2023-03-22T09:25:02.572Z,14.61
2023-03-22T09:27:31.119Z,14.89
2023-03-22T09:29:59.187Z,14.72
2023-03-22T09:32:27.522Z,14.97
2023-03-22T09:35:00.682Z,15.32
2023-03-22T09:37:36.154Z,14.80
2023-03-22T09:40:07.657Z,14.76
2023-03-22T09:42:39.648Z,14.57
2023-03-22T09:45:16.935Z,14.33
2023-03-22T09:47:46.892Z,14.23
2023-03-22T09:50:19.822Z,14.32
2023-03-22T09:52:48.373Z,15.16
2023-03-22T09:55:23.377Z,15.47
2023-03-22T09:58:00.511Z,16.69
2023-03-22T10:00:34.481Z,15.37
2023-03-22T10:03:10.746Z,15.70
2023-03-22T10:05:42.977Z,16.54
2023-03-22T10:08:23.850Z,17.13
2023-03-22T10:10:53.510Z,16.09
2023-03-22T10:13:26.766Z,16.27
2023-03-22T10:15:56.938Z,16.78
2023-03-22T10:18:27.987Z,17.15
2023-03-22T10:21:01.661Z,17.70
2023-03-22T10:23:35.184Z,17.01
2023-03-22T10:26:07.548Z,17.20
2023-03-22T10:28:40.234Z,17.09
2023-03-22T10:31:15.984Z,16.65
2023-03-22T10:33:51.071Z,16.28
2023-03-22T10:36:23.857Z,16.31
2023-03-22T10:38:55.760Z,16.30
2023-03-22T10:41:26.768Z,16.24
2023-03-22T10:43:58.318Z,16.73
2023-03-22T10:46:29.631Z,16.31
2023-03-22T10:48:59.912Z,16.48
2023-03-22T10:51:30.605Z,16.71
2023-03-22T10:54:01.484Z,16.98
2023-03-22T10:56:30.725Z,17.57
2023-03-22T10:58:58.842Z,17.28
2023-03-22T11:01:29.887Z,16.56
2023-03-22T11:04:00.785Z,16.06
2023-03-22T11:06:32.776Z,16.48
2023-03-22T11:09:02.568Z,15.89
2023-03-22T11:11:36.495Z,15.96
2023-03-22T11:14:09.386Z,16.30
2023-03-22T11:16:45.343Z,16.26
2023-03-22T11:19:19.081Z,16.32
2023-03-22T11:21:47.076Z,16.41
2023-03-22T11:24:15.615Z,16.09
2023-03-22T11:27:03.928Z,16.16
2023-03-22T11:29:41.866Z,15.85
2023-03-22T11:32:22.970Z,15.41
2023-03-22T11:35:01.439Z,15.86
2023-03-22T11:37:29.495Z,15.88
2023-03-22T11:40:05.154Z,15.90
2023-03-22T11:42:35.249Z,15.23
2023-03-22T11:45:03.233Z,15.20
2023-03-22T11:47:38.143Z,15.17
2023-03-22T11:50:09.524Z,14.97
2023-03-22T11:52:38.666Z,15.09
2023-03-22T11:55:06.897Z,15.20
2023-03-22T11:57:38.280Z,15.43
2023-03-22T12:00:14.578Z,14.98
2023-03-22T12:02:47.715Z,14.78
2023-03-22T12:05:21.468Z,14.58
2023-03-22T12:07:55.330Z,14.52
2023-03-22T12:10:27.667Z,14.83
2023-03-22T12:13:01.176Z,15.01
2023-03-22T12:15:32.781Z,14.93
2023-03-22T12:18:07.811Z,15.24
2023-03-22T12:20:43.020Z,14.78
2023-03-22T12:23:16.467Z,14.56
2023-03-22T12:25:50.596Z,14.76
2023-03-22T12:28:23.832Z,14.57
2023-03-22T12:30:56.144Z,14.38
2023-03-22T12:33:27.808Z,14.32
2023-03-22T12:35:59.418Z,14.50
2023-03-22T12:38:36.245Z,14.32
2023-03-22T12:41:08.555Z,14.67
2023-03-22T12:43:46.722Z,14.17
2023-03-22T12:46:20.338Z,14.37
2023-03-22T12:48:52.148Z,14.26
2023-03-22T12:51:19.993Z,14.58
2023-03-22T12:53:51.921Z,14.44
2023-03-22T12:56:22.976Z,14.26
2023-03-22T12:58:55.497Z,14.57
2023-03-22T13:01:31.440Z,14.58
2023-03-22T13:03:59.877Z,14.30
2023-03-22T13:06:34.201Z,14.12
2023-03-22T13:09:16.144Z,14.29
2023-03-22T13:11:46.217Z,14.06
2023-03-22T13:14:57.720Z,14.25
2023-03-22T13:17:46.853Z,14.12
2023-03-22T13:20:38.275Z,13.99
2023-03-22T13:23:26.946Z,14.12
2023-03-22T13:26:04.999Z,14.08
2023-03-22T13:28:37.336Z,14.10
2023-03-22T13:31:07.593Z,14.18
2023-03-22T13:33:37.092Z,14.13
2023-03-22T13:36:08.954Z,13.97
2023-03-22T13:38:42.377Z,13.89
2023-03-22T13:41:22.076Z,14.13
2023-03-22T13:43:52.027Z,13.92
2023-03-22T13:46:50.573Z,14.05
2023-03-22T13:49:37.207Z,14.19
2023-03-22T13:52:09.226Z,14.00
2023-03-22T13:54:42.264Z,13.97
2023-03-22T13:57:37.558Z,14.22
2023-03-22T14:00:14.410Z,13.99
2023-03-22T14:02:45.955Z,13.99
2023-03-22T14:05:17.559Z,14.29
2023-03-22T14:07:50.708Z,14.47
2023-03-22T14:10:22.653Z,14.23
2023-03-22T14:12:53.460Z,14.05
2023-03-22T14:15:24.693Z,13.90
2023-03-22T14:17:57.624Z,14.13
2023-03-22T14:20:27.724Z,13.88
